sensor_id;sensor_type;location;lat;lon;timestamp;pressure;altitude;pressure_sealevel;temperature;humidity
63500;BME280;49654;51.142;14.924;2023-04-24T00:00:21;97914.16;;;10.07;79.08
63500;BME280;49654;51.142;14.924;2023-04-24T00:02:48;98042.00;;;10.94;79.15
63500;BME280;49654;51.142;14.924;2023-04-24T00:05:16;97971.59;;;10.50;78.68
63500;BME280;49654;51.142;14.924;2023-04-24T00:07:44;98045.78;;;10.91;79.10
63500;BME280;49654;51.142;14.924;2023-04-24T00:10:12;98004.28;;;10.78;79.20
63500;BME280;49654;51.142;14.924;2023-04-24T00:12:40;97916.94;;;10.25;78.47
63500;BME280;49654;51.142;14.924;2023-04-24T00:15:08;98021.78;;;11.02;78.63
63500;BME280;49654;51.142;14.924;2023-04-24T00:17:35;97970.72;;;10.70;78.82
63500;BME280;49654;51.142;14.924;2023-04-24T00:20:03;98019.19;;;11.02;78.75
63500;BME280;49654;51.142;14.924;2023-04-24T00:22:31;97993.44;;;10.94;78.08
63500;BME280;49654;51.142;14.924;2023-04-24T00:24:58;97989.09;;;10.82;78.15
63500;BME280;49654;51.142;14.924;2023-04-24T00:27:25;97944.06;;;10.49;78.32
63500;BME280;49654;51.142;14.924;2023-04-24T00:29:53;97972.13;;;10.72;78.60
63500;BME280;49654;51.142;14.924;2023-04-24T00:32:20;97968.53;;;10.73;78.11
63500;BME280;49654;51.142;14.924;2023-04-24T00:34:47;97969.53;;;10.66;78.72
63500;BME280;49654;51.142;14.924;2023-04-24T00:37:14;97920.69;;;10.36;80.27
63500;BME280;49654;51.142;14.924;2023-04-24T00:39:41;97989.47;;;10.85;78.20
63500;BME280;49654;51.142;14.924;2023-04-24T00:42:08;97912.13;;;10.42;77.82
63500;BME280;49654;51.142;14.924;2023-04-24T00:44:35;97993.66;;;10.86;78.32
63500;BME280;49654;51.142;14.924;2023-04-24T00:47:04;97947.00;;;10.53;78.14
63500;BME280;49654;51.142;14.924;2023-04-24T00:49:31;97902.75;;;10.15;78.15
63500;BME280;49654;51.142;14.924;2023-04-24T00:51:58;97984.31;;;10.65;79.64
63500;BME280;49654;51.142;14.924;2023-04-24T00:54:25;97896.38;;;10.24;82.34
63500;BME280;49654;51.142;14.924;2023-04-24T00:56:52;97998.28;;;11.36;82.87
63500;BME280;49654;51.142;14.924;2023-04-24T00:59:19;97923.91;;;10.96;81.44
63500;BME280;49654;51.142;14.924;2023-04-24T01:01:46;97998.28;;;11.29;78.83
63500;BME280;49654;51.142;14.924;2023-04-24T01:04:16;98012.47;;;11.33;78.73
63500;BME280;49654;51.142;14.924;2023-04-24T01:06:45;97923.38;;;10.81;78.94
63500;BME280;49654;51.142;14.924;2023-04-24T01:09:12;97958.50;;;10.90;78.52
63500;BME280;49654;51.142;14.924;2023-04-24T01:11:41;97970.28;;;10.93;78.70
63500;BME280;49654;51.142;14.924;2023-04-24T01:14:08;97930.25;;;10.56;77.97
63500;BME280;49654;51.142;14.924;2023-04-24T01:16:35;97996.44;;;10.91;78.31
63500;BME280;49654;51.142;14.924;2023-04-24T01:19:04;98001.66;;;10.85;78.24
63500;BME280;49654;51.142;14.924;2023-04-24T01:21:35;97967.41;;;10.49;78.28
63500;BME280;49654;51.142;14.924;2023-04-24T01:24:05;97945.09;;;10.28;78.73
63500;BME280;49654;51.142;14.924;2023-04-24T01:26:32;97996.56;;;10.45;78.60
63500;BME280;49654;51.142;14.924;2023-04-24T01:29:00;97899.22;;;9.69;78.80
63500;BME280;49654;51.142;14.924;2023-04-24T01:31:27;97993.34;;;10.16;78.51
63500;BME280;49654;51.142;14.924;2023-04-24T01:33:55;97985.38;;;10.11;78.44
63500;BME280;49654;51.142;14.924;2023-04-24T01:36:23;97985.59;;;10.03;78.70
63500;BME280;49654;51.142;14.924;2023-04-24T01:38:51;97987.78;;;10.13;79.10
63500;BME280;49654;51.142;14.924;2023-04-24T01:41:19;97985.75;;;10.15;79.20
63500;BME280;49654;51.142;14.924;2023-04-24T01:43:48;97982.97;;;10.10;79.18
63500;BME280;49654;51.142;14.924;2023-04-24T01:46:15;97914.97;;;9.81;79.30
63500;BME280;49654;51.142;14.924;2023-04-24T01:48:44;97892.03;;;9.65;79.36
63500;BME280;49654;51.142;14.924;2023-04-24T01:51:11;97949.22;;;10.23;80.76
63500;BME280;49654;51.142;14.924;2023-04-24T01:53:38;97956.66;;;10.26;81.04
63500;BME280;49654;51.142;14.924;2023-04-24T01:56:06;97937.31;;;10.28;81.44
63500;BME280;49654;51.142;14.924;2023-04-24T01:58:35;97866.09;;;9.85;80.78
63500;BME280;49654;51.142;14.924;2023-04-24T02:01:02;97951.00;;;10.62;81.49
63500;BME280;49654;51.142;14.924;2023-04-24T02:03:29;97946.63;;;10.56;81.40
63500;BME280;49654;51.142;14.924;2023-04-24T02:05:56;97961.97;;;10.71;80.58
63500;BME280;49654;51.142;14.924;2023-04-24T02:08:23;97960.31;;;10.83;80.45
63500;BME280;49654;51.142;14.924;2023-04-24T02:10:50;97931.66;;;10.58;79.95
63500;BME280;49654;51.142;14.924;2023-04-24T02:13:17;97879.22;;;10.16;79.78
63500;BME280;49654;51.142;14.924;2023-04-24T02:15:45;97947.59;;;10.62;80.38
63500;BME280;49654;51.142;14.924;2023-04-24T02:18:12;97927.13;;;10.34;80.62
63500;BME280;49654;51.142;14.924;2023-04-24T02:20:39;97838.38;;;9.78;80.99
63500;BME280;49654;51.142;14.924;2023-04-24T02:23:06;97919.16;;;10.28;81.08
63500;BME280;49654;51.142;14.924;2023-04-24T02:25:33;97949.25;;;10.43;80.20
63500;BME280;49654;51.142;14.924;2023-04-24T02:28:00;97955.47;;;10.28;80.04
63500;BME280;49654;51.142;14.924;2023-04-24T02:30:28;97871.28;;;9.71;80.66
63500;BME280;49654;51.142;14.924;2023-04-24T02:32:56;97862.13;;;9.62;80.83
63500;BME280;49654;51.142;14.924;2023-04-24T02:35:23;97925.94;;;10.03;80.23
63500;BME280;49654;51.142;14.924;2023-04-24T02:37:51;97847.78;;;9.53;80.34
63500;BME280;49654;51.142;14.924;2023-04-24T02:40:18;97860.31;;;9.63;80.70
63500;BME280;49654;51.142;14.924;2023-04-24T02:42:45;97901.00;;;9.89;80.18
63500;BME280;49654;51.142;14.924;2023-04-24T02:45:12;97840.19;;;9.45;79.83
63500;BME280;49654;51.142;14.924;2023-04-24T02:47:39;97888.03;;;9.75;80.00
63500;BME280;49654;51.142;14.924;2023-04-24T02:50:08;97909.59;;;9.83;78.60
63500;BME280;49654;51.142;14.924;2023-04-24T02:52:35;97880.84;;;9.58;79.06
63500;BME280;49654;51.142;14.924;2023-04-24T02:55:03;97885.06;;;9.65;78.19
63500;BME280;49654;51.142;14.924;2023-04-24T02:57:30;97797.53;;;9.01;78.40
63500;BME280;49654;51.142;14.924;2023-04-24T02:59:57;97957.81;;;10.10;78.64
63500;BME280;49654;51.142;14.924;2023-04-24T03:02:24;97924.34;;;9.95;78.72
63500;BME280;49654;51.142;14.924;2023-04-24T03:04:51;97851.34;;;9.45;78.68
63500;BME280;49654;51.142;14.924;2023-04-24T03:07:20;97892.81;;;9.72;79.32
63500;BME280;49654;51.142;14.924;2023-04-24T03:09:47;97878.47;;;9.69;79.42
63500;BME280;49654;51.142;14.924;2023-04-24T03:12:14;97838.41;;;9.65;80.83
63500;BME280;49654;51.142;14.924;2023-04-24T03:14:43;97862.06;;;10.28;83.55
63500;BME280;49654;51.142;14.924;2023-04-24T03:17:10;97804.16;;;10.35;84.88
63500;BME280;49654;51.142;14.924;2023-04-24T03:19:37;97788.81;;;10.71;83.69
63500;BME280;49654;51.142;14.924;2023-04-24T03:22:05;97927.25;;;11.73;83.41
63500;BME280;49654;51.142;14.924;2023-04-24T03:24:33;97872.56;;;11.55;83.35
63500;BME280;49654;51.142;14.924;2023-04-24T03:27:00;97896.75;;;11.87;82.07
63500;BME280;49654;51.142;14.924;2023-04-24T03:29:27;97954.53;;;12.39;81.21
63500;BME280;49654;51.142;14.924;2023-04-24T03:31:54;97826.03;;;11.72;80.50
63500;BME280;49654;51.142;14.924;2023-04-24T03:34:21;97838.53;;;11.88;78.96
63500;BME280;49654;51.142;14.924;2023-04-24T03:36:48;97893.25;;;12.18;78.68
63500;BME280;49654;51.142;14.924;2023-04-24T03:39:15;97942.44;;;12.63;78.42
63500;BME280;49654;51.142;14.924;2023-04-24T03:41:44;97878.75;;;12.29;77.90
63500;BME280;49654;51.142;14.924;2023-04-24T03:44:11;97885.47;;;12.37;77.77
63500;BME280;49654;51.142;14.924;2023-04-24T03:46:38;97939.50;;;12.78;77.20
63500;BME280;49654;51.142;14.924;2023-04-24T03:49:06;97924.75;;;12.72;76.50
63500;BME280;49654;51.142;14.924;2023-04-24T03:51:33;97976.44;;;13.05;76.26
63500;BME280;49654;51.142;14.924;2023-04-24T03:54:00;97861.09;;;12.31;76.53
63500;BME280;49654;51.142;14.924;2023-04-24T03:56:27;97986.06;;;13.23;75.98
63500;BME280;49654;51.142;14.924;2023-04-24T03:58:55;97956.44;;;13.17;75.49
63500;BME280;49654;51.142;14.924;2023-04-24T04:01:22;97955.53;;;13.12;74.95
63500;BME280;49654;51.142;14.924;2023-04-24T04:03:50;97944.25;;;12.99;74.90
63500;BME280;49654;51.142;14.924;2023-04-24T04:06:17;97877.34;;;12.63;75.04
63500;BME280;49654;51.142;14.924;2023-04-24T04:08:45;97939.25;;;12.98;75.02
63500;BME280;49654;51.142;14.924;2023-04-24T04:11:12;97934.13;;;12.91;75.12
63500;BME280;49654;51.142;14.924;2023-04-24T04:13:39;97891.44;;;12.74;74.56
63500;BME280;49654;51.142;14.924;2023-04-24T04:16:08;97891.09;;;12.70;74.77
63500;BME280;49654;51.142;14.924;2023-04-24T04:18:35;97963.53;;;13.10;74.71
63500;BME280;49654;51.142;14.924;2023-04-24T04:21:03;97930.44;;;12.99;74.94
63500;BME280;49654;51.142;14.924;2023-04-24T04:23:30;97940.63;;;13.00;75.18
63500;BME280;49654;51.142;14.924;2023-04-24T04:25:57;97971.38;;;13.28;74.66
63500;BME280;49654;51.142;14.924;2023-04-24T04:28:24;97905.09;;;13.06;74.26
63500;BME280;49654;51.142;14.924;2023-04-24T04:30:52;97914.06;;;12.92;74.23
63500;BME280;49654;51.142;14.924;2023-04-24T04:33:21;97945.00;;;13.18;74.60
63500;BME280;49654;51.142;14.924;2023-04-24T04:35:48;97916.97;;;13.02;74.40
63500;BME280;49654;51.142;14.924;2023-04-24T04:38:15;97926.94;;;13.23;73.98
63500;BME280;49654;51.142;14.924;2023-04-24T04:40:42;97917.41;;;12.99;74.15
63500;BME280;49654;51.142;14.924;2023-04-24T04:43:09;97934.38;;;13.01;74.20
63500;BME280;49654;51.142;14.924;2023-04-24T04:45:39;97919.09;;;13.05;74.41
63500;BME280;49654;51.142;14.924;2023-04-24T04:48:07;97944.59;;;13.03;74.46
63500;BME280;49654;51.142;14.924;2023-04-24T04:50:36;98005.63;;;13.62;74.46
63500;BME280;49654;51.142;14.924;2023-04-24T04:53:03;97981.84;;;13.40;73.67
63500;BME280;49654;51.142;14.924;2023-04-24T04:55:30;97921.81;;;12.98;74.43
63500;BME280;49654;51.142;14.924;2023-04-24T04:57:57;97959.63;;;13.38;73.87
63500;BME280;49654;51.142;14.924;2023-04-24T05:00:26;97918.38;;;13.16;73.74
63500;BME280;49654;51.142;14.924;2023-04-24T05:02:54;97958.28;;;13.47;73.22
63500;BME280;49654;51.142;14.924;2023-04-24T05:05:21;97910.47;;;13.23;72.91
63500;BME280;49654;51.142;14.924;2023-04-24T05:07:49;97950.16;;;13.55;72.47
63500;BME280;49654;51.142;14.924;2023-04-24T05:10:17;97895.41;;;13.25;72.51
63500;BME280;49654;51.142;14.924;2023-04-24T05:12:44;97974.34;;;13.74;72.36
63500;BME280;49654;51.142;14.924;2023-04-24T05:15:11;98005.59;;;13.92;72.33
63500;BME280;49654;51.142;14.924;2023-04-24T05:17:38;97902.16;;;13.44;71.80
63500;BME280;49654;51.142;14.924;2023-04-24T05:20:07;97991.16;;;13.90;71.40
63500;BME280;49654;51.142;14.924;2023-04-24T05:22:34;97934.78;;;13.89;70.74
63500;BME280;49654;51.142;14.924;2023-04-24T05:25:03;97875.31;;;13.67;70.81
63500;BME280;49654;51.142;14.924;2023-04-24T05:27:33;97978.72;;;14.39;70.45
63500;BME280;49654;51.142;14.924;2023-04-24T05:30:00;98041.56;;;14.67;70.88
63500;BME280;49654;51.142;14.924;2023-04-24T05:32:27;97974.41;;;14.09;71.07
63500;BME280;49654;51.142;14.924;2023-04-24T05:34:54;97927.50;;;13.67;71.06
63500;BME280;49654;51.142;14.924;2023-04-24T05:37:21;98043.19;;;14.15;72.20
63500;BME280;49654;51.142;14.924;2023-04-24T05:39:48;98032.72;;;14.03;72.60
63500;BME280;49654;51.142;14.924;2023-04-24T05:42:16;98009.78;;;13.93;72.92
63500;BME280;49654;51.142;14.924;2023-04-24T05:44:43;98005.06;;;14.14;72.38
63500;BME280;49654;51.142;14.924;2023-04-24T05:47:10;97956.59;;;14.06;71.35
63500;BME280;49654;51.142;14.924;2023-04-24T05:49:37;98047.91;;;14.95;70.73
63500;BME280;49654;51.142;14.924;2023-04-24T05:52:04;97992.34;;;14.64;69.79
63500;BME280;49654;51.142;14.924;2023-04-24T05:54:34;98047.94;;;15.23;69.39
63500;BME280;49654;51.142;14.924;2023-04-24T05:57:01;98053.47;;;15.50;68.80
63500;BME280;49654;51.142;14.924;2023-04-24T05:59:36;98030.28;;;15.42;68.13
63500;BME280;49654;51.142;14.924;2023-04-24T06:02:03;98010.72;;;14.93;68.25
63500;BME280;49654;51.142;14.924;2023-04-24T06:04:31;98055.88;;;15.40;67.88
63500;BME280;49654;51.142;14.924;2023-04-24T06:06:59;98046.84;;;15.48;67.15
63500;BME280;49654;51.142;14.924;2023-04-24T06:09:25;98047.53;;;15.55;67.18
63500;BME280;49654;51.142;14.924;2023-04-24T06:11:52;98036.56;;;15.58;66.34
63500;BME280;49654;51.142;14.924;2023-04-24T06:14:20;98051.09;;;15.77;66.42
63500;BME280;49654;51.142;14.924;2023-04-24T06:16:48;98055.31;;;15.95;66.27
63500;BME280;49654;51.142;14.924;2023-04-24T06:19:15;98050.56;;;16.09;66.21
63500;BME280;49654;51.142;14.924;2023-04-24T06:21:42;98046.06;;;16.21;65.55
63500;BME280;49654;51.142;14.924;2023-04-24T06:24:09;98021.19;;;15.73;64.78
63500;BME280;49654;51.142;14.924;2023-04-24T06:26:36;98019.22;;;15.81;65.09
63500;BME280;49654;51.142;14.924;2023-04-24T06:29:03;98032.56;;;15.96;65.40
63500;BME280;49654;51.142;14.924;2023-04-24T06:31:30;98007.56;;;15.88;65.00
63500;BME280;49654;51.142;14.924;2023-04-24T06:34:03;98062.09;;;16.25;64.92
63500;BME280;49654;51.142;14.924;2023-04-24T06:36:32;98049.25;;;16.40;64.72
63500;BME280;49654;51.142;14.924;2023-04-24T06:39:00;98053.75;;;16.62;64.32
63500;BME280;49654;51.142;14.924;2023-04-24T06:41:27;97992.81;;;16.33;63.14
63500;BME280;49654;51.142;14.924;2023-04-24T06:43:54;98035.50;;;16.50;63.23
63500;BME280;49654;51.142;14.924;2023-04-24T06:46:22;98026.00;;;15.93;63.22
63500;BME280;49654;51.142;14.924;2023-04-24T06:48:51;98040.34;;;16.24;63.70
63500;BME280;49654;51.142;14.924;2023-04-24T06:51:23;98050.34;;;15.94;64.61
63500;BME280;49654;51.142;14.924;2023-04-24T06:53:51;97999.78;;;15.76;65.31
63500;BME280;49654;51.142;14.924;2023-04-24T06:56:18;98018.22;;;15.98;64.12
63500;BME280;49654;51.142;14.924;2023-04-24T06:58:45;98051.44;;;16.48;63.20
63500;BME280;49654;51.142;14.924;2023-04-24T07:01:12;97971.66;;;15.26;63.17
63500;BME280;49654;51.142;14.924;2023-04-24T07:03:39;98056.78;;;15.74;64.01
63500;BME280;49654;51.142;14.924;2023-04-24T07:06:06;98050.03;;;15.50;65.05
63500;BME280;49654;51.142;14.924;2023-04-24T07:08:35;98062.22;;;15.44;64.94
63500;BME280;49654;51.142;14.924;2023-04-24T07:11:02;98060.19;;;15.46;64.14
63500;BME280;49654;51.142;14.924;2023-04-24T07:13:30;98053.22;;;15.52;64.04
63500;BME280;49654;51.142;14.924;2023-04-24T07:15:57;98061.25;;;15.62;64.27
63500;BME280;49654;51.142;14.924;2023-04-24T07:18:24;98036.31;;;15.43;63.05
63500;BME280;49654;51.142;14.924;2023-04-24T07:20:51;97985.56;;;15.15;63.30
63500;BME280;49654;51.142;14.924;2023-04-24T07:23:19;97979.06;;;15.18;63.71
63500;BME280;49654;51.142;14.924;2023-04-24T07:25:47;98058.22;;;15.53;64.50
63500;BME280;49654;51.142;14.924;2023-04-24T07:28:14;98050.34;;;15.53;64.95
63500;BME280;49654;51.142;14.924;2023-04-24T07:30:41;98064.44;;;15.76;62.75
63500;BME280;49654;51.142;14.924;2023-04-24T07:33:08;98014.25;;;15.39;61.85
63500;BME280;49654;51.142;14.924;2023-04-24T07:35:36;98004.06;;;15.25;62.08
63500;BME280;49654;51.142;14.924;2023-04-24T07:38:03;98071.63;;;15.57;60.94
63500;BME280;49654;51.142;14.924;2023-04-24T07:40:30;98078.91;;;15.55;61.69
63500;BME280;49654;51.142;14.924;2023-04-24T07:42:59;98084.97;;;15.44;62.37
63500;BME280;49654;51.142;14.924;2023-04-24T07:45:26;98085.06;;;15.49;62.42
63500;BME280;49654;51.142;14.924;2023-04-24T07:47:53;98075.44;;;15.38;62.58
63500;BME280;49654;51.142;14.924;2023-04-24T07:50:21;98088.81;;;15.65;63.74
63500;BME280;49654;51.142;14.924;2023-04-24T07:52:48;98088.09;;;15.98;64.40
63500;BME280;49654;51.142;14.924;2023-04-24T07:55:15;98080.69;;;15.78;64.35
63500;BME280;49654;51.142;14.924;2023-04-24T07:57:42;98085.41;;;15.64;64.75
63500;BME280;49654;51.142;14.924;2023-04-24T08:00:11;97996.34;;;15.19;64.74
63500;BME280;49654;51.142;14.924;2023-04-24T08:02:38;98010.19;;;14.91;65.18
63500;BME280;49654;51.142;14.924;2023-04-24T08:05:05;98090.03;;;15.62;65.38
63500;BME280;49654;51.142;14.924;2023-04-24T08:07:33;98071.47;;;15.35;64.91
63500;BME280;49654;51.142;14.924;2023-04-24T08:10:01;98093.38;;;15.46;64.73
63500;BME280;49654;51.142;14.924;2023-04-24T08:12:28;98090.22;;;15.44;64.88
63500;BME280;49654;51.142;14.924;2023-04-24T08:14:55;98096.81;;;15.46;64.62
63500;BME280;49654;51.142;14.924;2023-04-24T08:17:23;98038.84;;;15.26;63.68
63500;BME280;49654;51.142;14.924;2023-04-24T08:19:50;98081.63;;;15.60;63.93
63500;BME280;49654;51.142;14.924;2023-04-24T08:22:18;98040.38;;;15.50;63.73
63500;BME280;49654;51.142;14.924;2023-04-24T08:24:45;98094.38;;;15.68;63.28
63500;BME280;49654;51.142;14.924;2023-04-24T08:27:12;98090.84;;;15.91;62.94
63500;BME280;49654;51.142;14.924;2023-04-24T08:29:39;98090.13;;;15.79;64.06
63500;BME280;49654;51.142;14.924;2023-04-24T08:32:06;98100.91;;;15.83;63.96
63500;BME280;49654;51.142;14.924;2023-04-24T08:34:34;98094.28;;;15.92;62.84
63500;BME280;49654;51.142;14.924;2023-04-24T08:37:02;98047.84;;;15.87;62.52
63500;BME280;49654;51.142;14.924;2023-04-24T08:39:29;98089.31;;;16.07;61.59
63500;BME280;49654;51.142;14.924;2023-04-24T08:41:56;98073.25;;;15.87;63.05
63500;BME280;49654;51.142;14.924;2023-04-24T08:44:23;98091.97;;;16.41;61.37
63500;BME280;49654;51.142;14.924;2023-04-24T08:46:50;98054.19;;;16.37;61.40
63500;BME280;49654;51.142;14.924;2023-04-24T08:49:17;98091.66;;;16.88;59.73
63500;BME280;49654;51.142;14.924;2023-04-24T08:51:48;98054.31;;;16.81;58.77
63500;BME280;49654;51.142;14.924;2023-04-24T08:54:16;98038.22;;;16.94;58.61
63500;BME280;49654;51.142;14.924;2023-04-24T08:56:44;97971.81;;;16.49;58.25
63500;BME280;49654;51.142;14.924;2023-04-24T08:59:11;98079.53;;;17.03;58.75
63500;BME280;49654;51.142;14.924;2023-04-24T09:01:39;98090.59;;;17.27;58.09
63500;BME280;49654;51.142;14.924;2023-04-24T09:04:08;98032.22;;;16.76;59.10
63500;BME280;49654;51.142;14.924;2023-04-24T09:06:36;98071.75;;;17.31;58.17
63500;BME280;49654;51.142;14.924;2023-04-24T09:09:05;98039.16;;;17.05;57.90
63500;BME280;49654;51.142;14.924;2023-04-24T09:11:32;98075.94;;;17.75;57.27
63500;BME280;49654;51.142;14.924;2023-04-24T09:13:59;98036.72;;;17.69;57.74
63500;BME280;49654;51.142;14.924;2023-04-24T09:16:27;98101.09;;;17.98;56.37
63500;BME280;49654;51.142;14.924;2023-04-24T09:35:56;97949.97;;;16.05;59.06
63500;BME280;49654;51.142;14.924;2023-04-24T09:43:43;98045.88;;;16.78;61.29
63500;BME280;49654;51.142;14.924;2023-04-24T09:51:33;98086.69;;;17.52;57.83
63500;BME280;49654;51.142;14.924;2023-04-24T09:54:00;98097.34;;;17.45;58.49
63500;BME280;49654;51.142;14.924;2023-04-24T09:56:27;98085.38;;;17.55;58.66
63500;BME280;49654;51.142;14.924;2023-04-24T09:58:54;98086.06;;;17.45;58.03
63500;BME280;49654;51.142;14.924;2023-04-24T10:01:30;98083.19;;;17.90;57.70
63500;BME280;49654;51.142;14.924;2023-04-24T10:03:57;98086.41;;;18.30;56.61
63500;BME280;49654;51.142;14.924;2023-04-24T10:06:32;98080.47;;;17.85;56.33
63500;BME280;49654;51.142;14.924;2023-04-24T10:09:00;98092.56;;;18.13;55.52
63500;BME280;49654;51.142;14.924;2023-04-24T10:11:27;98086.13;;;18.26;56.10
63500;BME280;49654;51.142;14.924;2023-04-24T10:13:54;98082.88;;;18.46;54.49
63500;BME280;49654;51.142;14.924;2023-04-24T10:16:22;98065.59;;;18.55;53.14
63500;BME280;49654;51.142;14.924;2023-04-24T10:18:49;98080.19;;;18.73;54.28
63500;BME280;49654;51.142;14.924;2023-04-24T10:21:17;98074.81;;;19.00;53.97
63500;BME280;49654;51.142;14.924;2023-04-24T10:23:45;98075.88;;;18.99;52.96
63500;BME280;49654;51.142;14.924;2023-04-24T10:26:12;98070.28;;;18.90;53.04
63500;BME280;49654;51.142;14.924;2023-04-24T10:28:44;98071.63;;;18.56;54.59
63500;BME280;49654;51.142;14.924;2023-04-24T10:31:12;98057.13;;;18.48;53.90
63500;BME280;49654;51.142;14.924;2023-04-24T10:33:40;98070.38;;;18.31;54.52
63500;BME280;49654;51.142;14.924;2023-04-24T10:36:09;98066.09;;;18.52;54.89
63500;BME280;49654;51.142;14.924;2023-04-24T10:38:38;98064.75;;;18.87;53.59
63500;BME280;49654;51.142;14.924;2023-04-24T10:41:09;98057.56;;;19.19;54.14
63500;BME280;49654;51.142;14.924;2023-04-24T10:43:41;98051.19;;;19.10;51.84
63500;BME280;49654;51.142;14.924;2023-04-24T10:46:09;98062.00;;;19.97;50.60
63500;BME280;49654;51.142;14.924;2023-04-24T10:48:42;98060.66;;;19.99;50.72
63500;BME280;49654;51.142;14.924;2023-04-24T10:51:11;98065.72;;;20.21;49.24
63500;BME280;49654;51.142;14.924;2023-04-24T10:53:39;98064.34;;;19.98;48.71
63500;BME280;49654;51.142;14.924;2023-04-24T10:56:08;98062.00;;;20.07;50.15
63500;BME280;49654;51.142;14.924;2023-04-24T10:58:38;98069.19;;;19.44;49.64
63500;BME280;49654;51.142;14.924;2023-04-24T11:01:06;98065.50;;;19.40;50.11
63500;BME280;49654;51.142;14.924;2023-04-24T11:03:34;98074.78;;;18.95;50.76
63500;BME280;49654;51.142;14.924;2023-04-24T11:06:03;98071.84;;;18.49;52.17
63500;BME280;49654;51.142;14.924;2023-04-24T11:08:33;98068.09;;;18.40;54.31
63500;BME280;49654;51.142;14.924;2023-04-24T11:11:07;98079.28;;;18.25;54.25
63500;BME280;49654;51.142;14.924;2023-04-24T11:14:04;98079.41;;;18.08;54.82
63500;BME280;49654;51.142;14.924;2023-04-24T11:16:35;98076.19;;;17.52;56.31
63500;BME280;49654;51.142;14.924;2023-04-24T11:19:06;98076.56;;;17.39;57.42
63500;BME280;49654;51.142;14.924;2023-04-24T11:21:40;98068.44;;;17.40;56.61
63500;BME280;49654;51.142;14.924;2023-04-24T11:24:27;98084.50;;;17.22;57.78
63500;BME280;49654;51.142;14.924;2023-04-24T11:26:55;98082.44;;;17.07;58.87
63500;BME280;49654;51.142;14.924;2023-04-24T11:29:38;98090.53;;;16.67;59.38
63500;BME280;49654;51.142;14.924;2023-04-24T11:32:17;98057.19;;;16.28;59.06
63500;BME280;49654;51.142;14.924;2023-04-24T11:34:49;98098.91;;;16.18;60.48
63500;BME280;49654;51.142;14.924;2023-04-24T11:37:16;98101.78;;;16.17;60.68
63500;BME280;49654;51.142;14.924;2023-04-24T11:39:43;98108.72;;;15.66;62.55
63500;BME280;49654;51.142;14.924;2023-04-24T11:42:14;98106.94;;;15.43;64.51
63500;BME280;49654;51.142;14.924;2023-04-24T11:44:43;98111.38;;;15.42;66.64
63500;BME280;49654;51.142;14.924;2023-04-24T11:47:10;98116.81;;;15.64;63.77
63500;BME280;49654;51.142;14.924;2023-04-24T11:49:37;98110.63;;;15.99;64.04
63500;BME280;49654;51.142;14.924;2023-04-24T11:52:04;98102.13;;;16.37;61.35
63500;BME280;49654;51.142;14.924;2023-04-24T11:54:31;98100.41;;;16.14;63.03
63500;BME280;49654;51.142;14.924;2023-04-24T11:56:59;98111.78;;;16.20;63.82
63500;BME280;49654;51.142;14.924;2023-04-24T11:59:25;98104.28;;;15.95;63.22
63500;BME280;49654;51.142;14.924;2023-04-24T12:01:54;98099.78;;;16.07;65.03
63500;BME280;49654;51.142;14.924;2023-04-24T12:04:21;98104.34;;;16.28;63.66
63500;BME280;49654;51.142;14.924;2023-04-24T12:07:00;98095.56;;;16.23;62.22
63500;BME280;49654;51.142;14.924;2023-04-24T12:09:27;98102.03;;;16.15;63.38
63500;BME280;49654;51.142;14.924;2023-04-24T12:11:54;98096.09;;;16.37;62.95
63500;BME280;49654;51.142;14.924;2023-04-24T12:14:22;98093.88;;;16.28;63.03
63500;BME280;49654;51.142;14.924;2023-04-24T12:16:49;98091.47;;;16.44;60.75
63500;BME280;49654;51.142;14.924;2023-04-24T12:19:20;98092.13;;;16.85;61.35
63500;BME280;49654;51.142;14.924;2023-04-24T12:21:59;98097.78;;;16.76;58.30
63500;BME280;49654;51.142;14.924;2023-04-24T12:24:26;98095.91;;;16.60;58.54
63500;BME280;49654;51.142;14.924;2023-04-24T12:26:53;98094.47;;;17.03;56.09
63500;BME280;49654;51.142;14.924;2023-04-24T12:29:20;98081.66;;;17.50;55.23
63500;BME280;49654;51.142;14.924;2023-04-24T12:31:47;98084.00;;;17.96;52.79
63500;BME280;49654;51.142;14.924;2023-04-24T12:34:19;98081.38;;;18.60;52.57
63500;BME280;49654;51.142;14.924;2023-04-24T12:36:47;98067.47;;;19.02;49.81
63500;BME280;49654;51.142;14.924;2023-04-24T12:39:14;98057.31;;;19.31;48.81
63500;BME280;49654;51.142;14.924;2023-04-24T12:41:50;98058.50;;;20.88;45.72
63500;BME280;49654;51.142;14.924;2023-04-24T12:44:17;98060.16;;;20.74;43.80
63500;BME280;49654;51.142;14.924;2023-04-24T12:46:44;98052.81;;;20.56;44.05
63500;BME280;49654;51.142;14.924;2023-04-24T12:49:11;98042.72;;;20.78;45.25
63500;BME280;49654;51.142;14.924;2023-04-24T12:51:40;98051.72;;;20.31;44.31
63500;BME280;49654;51.142;14.924;2023-04-24T12:54:07;98050.41;;;20.54;45.23
63500;BME280;49654;51.142;14.924;2023-04-24T12:56:34;98058.13;;;21.25;43.95
63500;BME280;49654;51.142;14.924;2023-04-24T12:59:05;98055.47;;;21.31;42.41
63500;BME280;49654;51.142;14.924;2023-04-24T13:01:32;98048.28;;;20.41;44.62
63500;BME280;49654;51.142;14.924;2023-04-24T13:03:59;98055.41;;;20.71;45.10
63500;BME280;49654;51.142;14.924;2023-04-24T13:06:26;98034.03;;;20.67;42.92
63500;BME280;49654;51.142;14.924;2023-04-24T13:08:54;98052.00;;;20.65;43.71
63500;BME280;49654;51.142;14.924;2023-04-24T13:11:23;98045.63;;;19.95;44.71
63500;BME280;49654;51.142;14.924;2023-04-24T13:13:50;98043.69;;;21.08;43.19
63500;BME280;49654;51.142;14.924;2023-04-24T13:16:17;98033.72;;;21.59;40.14
63500;BME280;49654;51.142;14.924;2023-04-24T13:18:44;98017.97;;;22.17;37.75
63500;BME280;49654;51.142;14.924;2023-04-24T13:21:11;98033.09;;;23.18;38.35